sensor_id;sensor_type;location;lat;lon;timestamp;pressure;altitude;pressure_sealevel;temperature;humidity
21594;BME280;10959;51.328;7.322;2023-05-31T00:01:57;74704.19;;;-147.06;55.48
21594;BME280;10959;51.328;7.322;2023-05-31T00:04:23;74710.31;;;-147.06;55.33
21594;BME280;10959;51.328;7.322;2023-05-31T00:06:50;74708.28;;;-147.06;55.35
21594;BME280;10959;51.328;7.322;2023-05-31T00:09:17;74695.97;;;-147.06;54.98
21594;BME280;10959;51.328;7.322;2023-05-31T00:11:44;74689.84;;;-147.06;54.59
21594;BME280;10959;51.328;7.322;2023-05-31T00:14:10;74695.97;;;-147.06;55.30
21594;BME280;10959;51.328;7.322;2023-05-31T00:16:37;74695.97;;;-147.06;54.92
21594;BME280;10959;51.328;7.322;2023-05-31T00:19:03;74700.09;;;-147.06;54.98
21594;BME280;10959;51.328;7.322;2023-05-31T00:21:30;74700.09;;;-147.06;54.92
21594;BME280;10959;51.328;7.322;2023-05-31T00:23:57;74693.94;;;-147.06;54.84
21594;BME280;10959;51.328;7.322;2023-05-31T00:26:24;74695.97;;;-147.06;54.76
21594;BME280;10959;51.328;7.322;2023-05-31T00:28:51;74687.78;;;-147.06;54.92
21594;BME280;10959;51.328;7.322;2023-05-31T00:31:17;74693.94;;;-147.06;55.18
21594;BME280;10959;51.328;7.322;2023-05-31T00:33:44;74695.97;;;-147.06;54.75
21594;BME280;10959;51.328;7.322;2023-05-31T00:36:10;74691.88;;;-147.06;54.81
21594;BME280;10959;51.328;7.322;2023-05-31T00:38:36;74687.78;;;-147.06;54.62
21594;BME280;10959;51.328;7.322;2023-05-31T00:41:03;74695.97;;;-147.06;55.01
21594;BME280;10959;51.328;7.322;2023-05-31T00:43:31;74700.09;;;-147.06;54.91
21594;BME280;10959;51.328;7.322;2023-05-31T00:45:57;74695.97;;;-147.06;54.50
21594;BME280;10959;51.328;7.322;2023-05-31T00:48:24;74691.88;;;-147.06;54.27
21594;BME280;10959;51.328;7.322;2023-05-31T00:50:50;74687.78;;;-147.06;53.88
21594;BME280;10959;51.328;7.322;2023-05-31T00:53:17;74675.50;;;-147.06;53.79
21594;BME280;10959;51.328;7.322;2023-05-31T00:55:44;74675.50;;;-147.06;53.79
21594;BME280;10959;51.328;7.322;2023-05-31T00:58:11;74679.59;;;-147.06;53.71
21594;BME280;10959;51.328;7.322;2023-05-31T01:00:39;74685.75;;;-147.06;53.38
21594;BME280;10959;51.328;7.322;2023-05-31T01:03:06;74679.59;;;-147.06;53.33
21594;BME280;10959;51.328;7.322;2023-05-31T01:05:34;74685.75;;;-147.06;53.60
21594;BME280;10959;51.328;7.322;2023-05-31T01:08:00;74691.88;;;-147.06;53.71
21594;BME280;10959;51.328;7.322;2023-05-31T01:10:28;74687.78;;;-147.06;53.78
21594;BME280;10959;51.328;7.322;2023-05-31T01:13:01;74700.09;;;-147.06;53.62
21594;BME280;10959;51.328;7.322;2023-05-31T01:15:32;74704.19;;;-147.06;53.78
21594;BME280;10959;51.328;7.322;2023-05-31T01:18:06;74712.38;;;-147.06;53.43
21594;BME280;10959;51.328;7.322;2023-05-31T01:20:38;74700.09;;;-147.06;53.51
21594;BME280;10959;51.328;7.322;2023-05-31T01:23:22;74724.66;;;-147.06;53.81
21594;BME280;10959;51.328;7.322;2023-05-31T01:26:32;74741.06;;;-147.06;54.12
21594;BME280;10959;51.328;7.322;2023-05-31T01:29:02;74718.53;;;-147.06;54.24
21594;BME280;10959;51.328;7.322;2023-05-31T01:31:31;74726.72;;;-147.06;54.58
21594;BME280;10959;51.328;7.322;2023-05-31T01:34:00;74732.88;;;-147.06;55.15
21594;BME280;10959;51.328;7.322;2023-05-31T01:36:27;74736.97;;;-147.06;55.08
21594;BME280;10959;51.328;7.322;2023-05-31T01:38:53;74745.16;;;-147.06;55.64
21594;BME280;10959;51.328;7.322;2023-05-31T01:41:20;74753.34;;;-147.06;55.72
21594;BME280;10959;51.328;7.322;2023-05-31T01:43:51;74765.66;;;-147.06;55.72
21594;BME280;10959;51.328;7.322;2023-05-31T01:46:18;74761.56;;;-147.06;55.83
21594;BME280;10959;51.328;7.322;2023-05-31T01:48:45;74759.50;;;-147.06;55.65
21594;BME280;10959;51.328;7.322;2023-05-31T01:51:14;74765.66;;;-147.06;55.98
21594;BME280;10959;51.328;7.322;2023-05-31T01:53:41;74769.75;;;-147.06;56.20
21594;BME280;10959;51.328;7.322;2023-05-31T01:56:08;74769.75;;;-147.06;56.13
21594;BME280;10959;51.328;7.322;2023-05-31T01:58:36;74771.78;;;-147.06;56.01
21594;BME280;10959;51.328;7.322;2023-05-31T02:01:04;74765.66;;;-147.06;55.72
21594;BME280;10959;51.328;7.322;2023-05-31T02:03:31;74769.75;;;-147.06;55.98
21594;BME280;10959;51.328;7.322;2023-05-31T02:05:59;74782.03;;;-147.06;56.57
21594;BME280;10959;51.328;7.322;2023-05-31T02:08:26;74794.34;;;-147.06;57.04
21594;BME280;10959;51.328;7.322;2023-05-31T02:10:53;74798.44;;;-147.06;57.18
21594;BME280;10959;51.328;7.322;2023-05-31T02:13:23;74800.47;;;-147.06;56.86
21594;BME280;10959;51.328;7.322;2023-05-31T02:15:50;74790.22;;;-147.06;56.94
21594;BME280;10959;51.328;7.322;2023-05-31T02:18:18;74798.44;;;-147.06;57.02
21594;BME280;10959;51.328;7.322;2023-05-31T02:20:45;74798.44;;;-147.06;56.99
21594;BME280;10959;51.328;7.322;2023-05-31T02:23:11;74802.53;;;-147.06;57.03
21594;BME280;10959;51.328;7.322;2023-05-31T02:25:37;74798.44;;;-147.06;56.73
21594;BME280;10959;51.328;7.322;2023-05-31T02:28:04;74810.72;;;-147.06;57.21
21594;BME280;10959;51.328;7.322;2023-05-31T02:30:31;74814.81;;;-147.06;57.51
21594;BME280;10959;51.328;7.322;2023-05-31T02:32:58;74820.97;;;-147.06;57.38
21594;BME280;10959;51.328;7.322;2023-05-31T02:35:27;74823.03;;;-147.06;57.42
21594;BME280;10959;51.328;7.322;2023-05-31T02:37:53;74823.03;;;-147.06;57.14
21594;BME280;10959;51.328;7.322;2023-05-31T02:40:20;74810.72;;;-147.06;56.84
21594;BME280;10959;51.328;7.322;2023-05-31T02:42:46;74804.56;;;-147.06;56.73
21594;BME280;10959;51.328;7.322;2023-05-31T02:45:13;74806.63;;;-147.06;56.39
21594;BME280;10959;51.328;7.322;2023-05-31T02:47:40;74808.69;;;-147.06;56.82
21594;BME280;10959;51.328;7.322;2023-05-31T02:50:07;74806.63;;;-147.06;56.41
21594;BME280;10959;51.328;7.322;2023-05-31T02:52:36;74806.63;;;-147.06;56.48
21594;BME280;10959;51.328;7.322;2023-05-31T02:55:03;74806.63;;;-147.06;56.55
21594;BME280;10959;51.328;7.322;2023-05-31T02:57:30;74806.63;;;-147.06;56.34
21594;BME280;10959;51.328;7.322;2023-05-31T02:59:58;74796.38;;;-147.06;56.10
21594;BME280;10959;51.328;7.322;2023-05-31T03:02:24;74798.44;;;-147.06;55.94
21594;BME280;10959;51.328;7.322;2023-05-31T03:04:51;74794.34;;;-147.06;55.66
21594;BME280;10959;51.328;7.322;2023-05-31T03:07:17;74794.34;;;-147.06;55.32
21594;BME280;10959;51.328;7.322;2023-05-31T03:09:45;74794.34;;;-147.06;55.28
21594;BME280;10959;51.328;7.322;2023-05-31T03:12:11;74794.34;;;-147.06;55.17
21594;BME280;10959;51.328;7.322;2023-05-31T03:14:38;74794.34;;;-147.06;55.05
21594;BME280;10959;51.328;7.322;2023-05-31T03:17:04;74790.22;;;-147.06;54.84
21594;BME280;10959;51.328;7.322;2023-05-31T03:19:31;74790.22;;;-147.06;54.84
21594;BME280;10959;51.328;7.322;2023-05-31T03:21:58;74792.28;;;-147.06;54.75
21594;BME280;10959;51.328;7.322;2023-05-31T03:24:24;74792.28;;;-147.06;54.60
21594;BME280;10959;51.328;7.322;2023-05-31T03:26:52;74792.28;;;-147.06;54.50
21594;BME280;10959;51.328;7.322;2023-05-31T03:29:19;74786.13;;;-147.06;54.32
21594;BME280;10959;51.328;7.322;2023-05-31T03:31:46;74782.03;;;-147.06;54.41
21594;BME280;10959;51.328;7.322;2023-05-31T03:34:15;74788.19;;;-147.06;54.54
21594;BME280;10959;51.328;7.322;2023-05-31T03:36:42;74780.00;;;-147.06;54.52
21594;BME280;10959;51.328;7.322;2023-05-31T03:39:08;74784.09;;;-147.06;54.38
21594;BME280;10959;51.328;7.322;2023-05-31T03:41:35;74777.94;;;-147.06;54.24
21594;BME280;10959;51.328;7.322;2023-05-31T03:44:03;74780.00;;;-147.06;54.29
21594;BME280;10959;51.328;7.322;2023-05-31T03:46:30;74786.13;;;-147.06;54.49
21594;BME280;10959;51.328;7.322;2023-05-31T03:48:56;74794.34;;;-147.06;55.14
21594;BME280;10959;51.328;7.322;2023-05-31T03:51:23;74810.72;;;-147.06;55.93
21594;BME280;10959;51.328;7.322;2023-05-31T03:53:49;74814.81;;;-147.06;55.99
21594;BME280;10959;51.328;7.322;2023-05-31T03:56:15;74806.63;;;-147.06;55.97
21594;BME280;10959;51.328;7.322;2023-05-31T03:58:42;74816.88;;;-147.06;56.37
21594;BME280;10959;51.328;7.322;2023-05-31T04:01:10;74816.88;;;-147.06;56.25
21594;BME280;10959;51.328;7.322;2023-05-31T04:03:36;74820.97;;;-147.06;56.53
21594;BME280;10959;51.328;7.322;2023-05-31T04:06:03;74816.88;;;-147.06;56.55
21594;BME280;10959;51.328;7.322;2023-05-31T04:08:29;74829.16;;;-147.06;57.10
21594;BME280;10959;51.328;7.322;2023-05-31T04:10:56;74839.41;;;-147.06;57.09
21594;BME280;10959;51.328;7.322;2023-05-31T04:13:22;74829.16;;;-147.06;57.17
21594;BME280;10959;51.328;7.322;2023-05-31T04:15:49;74861.94;;;-147.06;58.11
21594;BME280;10959;51.328;7.322;2023-05-31T04:18:16;74855.81;;;-147.06;57.97
21594;BME280;10959;51.328;7.322;2023-05-31T04:20:43;74847.59;;;-147.06;58.06
21594;BME280;10959;51.328;7.322;2023-05-31T04:23:09;74861.94;;;-147.06;58.50
21594;BME280;10959;51.328;7.322;2023-05-31T04:25:36;74859.91;;;-147.06;58.94
21594;BME280;10959;51.328;7.322;2023-05-31T04:28:02;74855.81;;;-147.06;58.72
21594;BME280;10959;51.328;7.322;2023-05-31T04:30:30;74859.91;;;-147.06;59.10
21594;BME280;10959;51.328;7.322;2023-05-31T04:32:58;74859.91;;;-147.06;59.19
21594;BME280;10959;51.328;7.322;2023-05-31T04:35:26;74843.50;;;-147.06;59.05
21594;BME280;10959;51.328;7.322;2023-05-31T04:37:54;74833.25;;;-147.06;58.74
21594;BME280;10959;51.328;7.322;2023-05-31T04:40:24;74839.41;;;-147.06;59.03
21594;BME280;10959;51.328;7.322;2023-05-31T04:42:50;74835.31;;;-147.06;58.93
21594;BME280;10959;51.328;7.322;2023-05-31T04:45:17;74835.31;;;-147.06;59.10
21594;BME280;10959;51.328;7.322;2023-05-31T04:47:43;74827.13;;;-147.06;59.10
21594;BME280;10959;51.328;7.322;2023-05-31T04:50:11;74818.91;;;-147.06;58.80
21594;BME280;10959;51.328;7.322;2023-05-31T04:52:38;74816.88;;;-147.06;59.16
21594;BME280;10959;51.328;7.322;2023-05-31T04:55:07;74798.44;;;-147.06;58.76
21594;BME280;10959;51.328;7.322;2023-05-31T04:57:33;74788.19;;;-147.06;58.74
21594;BME280;10959;51.328;7.322;2023-05-31T05:00:00;74777.94;;;-147.06;58.34
21594;BME280;10959;51.328;7.322;2023-05-31T05:02:26;74773.84;;;-147.06;58.34
21594;BME280;10959;51.328;7.322;2023-05-31T05:04:53;74777.94;;;-147.06;58.62
21594;BME280;10959;51.328;7.322;2023-05-31T05:07:19;74780.00;;;-147.06;58.66
21594;BME280;10959;51.328;7.322;2023-05-31T05:09:47;74782.03;;;-147.06;58.62
21594;BME280;10959;51.328;7.322;2023-05-31T05:12:14;74782.03;;;-147.06;58.84
21594;BME280;10959;51.328;7.322;2023-05-31T05:14:40;74769.75;;;-147.06;58.62
21594;BME280;10959;51.328;7.322;2023-05-31T05:17:07;74749.25;;;-147.06;58.34
21594;BME280;10959;51.328;7.322;2023-05-31T05:19:33;74741.06;;;-147.06;57.91
21594;BME280;10959;51.328;7.322;2023-05-31T05:22:00;74724.66;;;-147.06;57.69
21594;BME280;10959;51.328;7.322;2023-05-31T05:24:26;74704.19;;;-147.06;57.38
21594;BME280;10959;51.328;7.322;2023-05-31T05:26:54;74687.78;;;-147.06;57.18
21594;BME280;10959;51.328;7.322;2023-05-31T05:29:20;74663.19;;;-147.06;56.65
21594;BME280;10959;51.328;7.322;2023-05-31T05:31:47;74665.25;;;-147.06;56.50
21594;BME280;10959;51.328;7.322;2023-05-31T05:34:14;74671.41;;;-147.06;56.40
21594;BME280;10959;51.328;7.322;2023-05-31T05:36:40;74667.28;;;-147.06;56.36
21594;BME280;10959;51.328;7.322;2023-05-31T05:39:06;74665.25;;;-147.06;56.23
21594;BME280;10959;51.328;7.322;2023-05-31T05:41:33;74646.81;;;-147.06;56.54
21594;BME280;10959;51.328;7.322;2023-05-31T05:44:01;74659.09;;;-147.06;56.42
21594;BME280;10959;51.328;7.322;2023-05-31T05:46:28;74655.00;;;-147.06;56.56
21594;BME280;10959;51.328;7.322;2023-05-31T05:48:54;74634.50;;;-147.06;56.57
21594;BME280;10959;51.328;7.322;2023-05-31T05:51:21;74618.13;;;-147.06;56.17
21594;BME280;10959;51.328;7.322;2023-05-31T05:53:48;74593.53;;;-147.06;55.79
21594;BME280;10959;51.328;7.322;2023-05-31T05:56:15;74579.19;;;-147.06;55.36
21594;BME280;10959;51.328;7.322;2023-05-31T05:58:44;74552.56;;;-147.06;55.42
21594;BME280;10959;51.328;7.322;2023-05-31T06:01:12;74527.97;;;-147.06;55.00
21594;BME280;10959;51.328;7.322;2023-05-31T06:03:45;74491.09;;;-147.06;54.59
21594;BME280;10959;51.328;7.322;2023-05-31T06:06:12;74458.31;;;-147.06;54.34
21594;BME280;10959;51.328;7.322;2023-05-31T06:08:38;74439.88;;;-147.06;53.76
21594;BME280;10959;51.328;7.322;2023-05-31T06:11:05;74413.25;;;-147.06;53.38
21594;BME280;10959;51.328;7.322;2023-05-31T06:13:31;74405.03;;;-147.06;53.06
21594;BME280;10959;51.328;7.322;2023-05-31T06:15:58;74380.47;;;-147.06;53.06
21594;BME280;10959;51.328;7.322;2023-05-31T06:18:25;74374.31;;;-147.06;52.55
21594;BME280;10959;51.328;7.322;2023-05-31T06:20:52;74364.06;;;-147.06;52.17
21594;BME280;10959;51.328;7.322;2023-05-31T06:23:18;74368.16;;;-147.06;51.78
21594;BME280;10959;51.328;7.322;2023-05-31T06:25:46;74351.78;;;-147.06;51.85
21594;BME280;10959;51.328;7.322;2023-05-31T06:28:12;74347.69;;;-147.06;51.83
21594;BME280;10959;51.328;7.322;2023-05-31T06:30:39;74327.19;;;-147.06;51.52
21594;BME280;10959;51.328;7.322;2023-05-31T06:33:07;74314.91;;;-147.06;51.25
21594;BME280;10959;51.328;7.322;2023-05-31T06:35:34;74286.22;;;-147.06;50.99
21594;BME280;10959;51.328;7.322;2023-05-31T06:38:01;74265.72;;;-147.06;50.51
21594;BME280;10959;51.328;7.322;2023-05-31T06:40:29;74249.34;;;-147.06;50.63
21594;BME280;10959;51.328;7.322;2023-05-31T06:42:55;74224.75;;;-147.06;50.42
21594;BME280;10959;51.328;7.322;2023-05-31T06:45:22;74200.19;;;-147.06;50.09
21594;BME280;10959;51.328;7.322;2023-05-31T06:47:49;74181.72;;;-147.06;49.43
21594;BME280;10959;51.328;7.322;2023-05-31T06:50:15;74187.88;;;-147.06;48.52
21594;BME280;10959;51.328;7.322;2023-05-31T06:52:43;74179.69;;;-147.06;48.79
21594;BME280;10959;51.328;7.322;2023-05-31T06:55:09;74187.88;;;-147.06;48.59
21594;BME280;10959;51.328;7.322;2023-05-31T06:57:36;74167.41;;;-147.06;48.51
21594;BME280;10959;51.328;7.322;2023-05-31T07:00:02;74146.91;;;-147.06;48.65
21594;BME280;10959;51.328;7.322;2023-05-31T07:02:32;74130.53;;;-147.06;48.54
21594;BME280;10959;51.328;7.322;2023-05-31T07:04:58;74114.13;;;-147.06;48.00
21594;BME280;10959;51.328;7.322;2023-05-31T07:07:26;74077.25;;;-147.06;48.42
21594;BME280;10959;51.328;7.322;2023-05-31T07:09:53;74060.88;;;-147.06;47.55
21594;BME280;10959;51.328;7.322;2023-05-31T07:12:20;74077.25;;;-147.06;46.99
21594;BME280;10959;51.328;7.322;2023-05-31T07:14:47;74093.66;;;-147.06;46.64
21594;BME280;10959;51.328;7.322;2023-05-31T07:17:13;74085.44;;;-147.06;47.07
21594;BME280;10959;51.328;7.322;2023-05-31T07:19:43;74064.97;;;-147.06;46.81
21594;BME280;10959;51.328;7.322;2023-05-31T07:22:10;74040.38;;;-147.06;46.62
21594;BME280;10959;51.328;7.322;2023-05-31T07:24:38;74028.09;;;-147.06;45.72
21594;BME280;10959;51.328;7.322;2023-05-31T07:27:06;74019.91;;;-147.06;45.57
21594;BME280;10959;51.328;7.322;2023-05-31T07:29:32;74015.78;;;-147.06;45.55
21594;BME280;10959;51.328;7.322;2023-05-31T07:31:59;74003.50;;;-147.06;45.46
21594;BME280;10959;51.328;7.322;2023-05-31T07:34:25;74003.50;;;-147.06;44.99
21594;BME280;10959;51.328;7.322;2023-05-31T07:36:52;73999.41;;;-147.06;45.32
21594;BME280;10959;51.328;7.322;2023-05-31T07:39:21;73964.59;;;-147.06;45.52
21594;BME280;10959;51.328;7.322;2023-05-31T07:41:47;73923.63;;;-147.06;45.25
21594;BME280;10959;51.328;7.322;2023-05-31T07:44:15;73884.69;;;-147.06;44.55
21594;BME280;10959;51.328;7.322;2023-05-31T07:46:43;73866.25;;;-147.06;44.63
21594;BME280;10959;51.328;7.322;2023-05-31T07:49:10;73843.72;;;-147.06;43.76
21594;BME280;10959;51.328;7.322;2023-05-31T07:51:36;73823.22;;;-147.06;44.47
21594;BME280;10959;51.328;7.322;2023-05-31T07:54:03;73819.13;;;-147.06;42.77
21594;BME280;10959;51.328;7.322;2023-05-31T07:56:30;73833.47;;;-147.06;43.13
21594;BME280;10959;51.328;7.322;2023-05-31T07:58:56;73800.69;;;-147.06;43.23
21594;BME280;10959;51.328;7.322;2023-05-31T08:01:24;73786.38;;;-147.06;42.41
21594;BME280;10959;51.328;7.322;2023-05-31T08:03:54;73790.47;;;-147.06;42.24
21594;BME280;10959;51.328;7.322;2023-05-31T08:06:20;73780.22;;;-147.06;42.78
21594;BME280;10959;51.328;7.322;2023-05-31T08:08:48;73749.50;;;-147.06;42.45
21594;BME280;10959;51.328;7.322;2023-05-31T08:11:15;73790.47;;;-147.06;40.68
21594;BME280;10959;51.328;7.322;2023-05-31T08:13:41;73819.13;;;-147.06;41.20
21594;BME280;10959;51.328;7.322;2023-05-31T08:16:08;73806.84;;;-147.06;42.26
21594;BME280;10959;51.328;7.322;2023-05-31T08:18:36;73757.69;;;-147.06;41.45
21594;BME280;10959;51.328;7.322;2023-05-31T08:21:03;73745.41;;;-147.06;41.25
21594;BME280;10959;51.328;7.322;2023-05-31T08:23:29;73733.09;;;-147.06;41.52
21594;BME280;10959;51.328;7.322;2023-05-31T08:25:56;73749.50;;;-147.06;40.77
21594;BME280;10959;51.328;7.322;2023-05-31T08:28:22;73737.19;;;-147.06;40.68
21594;BME280;10959;51.328;7.322;2023-05-31T08:30:49;73688.03;;;-147.06;40.92
21594;BME280;10959;51.328;7.322;2023-05-31T08:33:15;73677.78;;;-147.06;39.10
21594;BME280;10959;51.328;7.322;2023-05-31T08:35:43;73663.47;;;-147.06;39.76
21594;BME280;10959;51.328;7.322;2023-05-31T08:38:09;73671.66;;;-147.06;39.03
21594;BME280;10959;51.328;7.322;2023-05-31T08:40:36;73647.06;;;-147.06;39.51
21594;BME280;10959;51.328;7.322;2023-05-31T08:43:05;73589.72;;;-147.06;39.93
21594;BME280;10959;51.328;7.322;2023-05-31T08:45:35;73569.22;;;-147.06;39.35
21594;BME280;10959;51.328;7.322;2023-05-31T08:48:13;73565.13;;;-147.06;39.80
21594;BME280;10959;51.328;7.322;2023-05-31T08:50:43;73503.69;;;-147.06;39.89
21594;BME280;10959;51.328;7.322;2023-05-31T08:53:11;73466.81;;;-147.06;38.32
21594;BME280;10959;51.328;7.322;2023-05-31T08:55:38;73425.84;;;-147.06;38.11
21594;BME280;10959;51.328;7.322;2023-05-31T08:58:05;73423.81;;;-147.06;37.19
21594;BME280;10959;51.328;7.322;2023-05-31T09:00:32;73438.13;;;-147.06;37.15
21594;BME280;10959;51.328;7.322;2023-05-31T09:03:03;73405.38;;;-147.06;37.08
21594;BME280;10959;51.328;7.322;2023-05-31T09:05:31;73372.59;;;-147.06;36.96
21594;BME280;10959;51.328;7.322;2023-05-31T09:07:59;73368.50;;;-147.06;36.36
21594;BME280;10959;51.328;7.322;2023-05-31T09:10:26;73366.44;;;-147.06;36.71
21594;BME280;10959;51.328;7.322;2023-05-31T09:12:53;73384.88;;;-147.06;36.28
21594;BME280;10959;51.328;7.322;2023-05-31T09:15:23;73460.66;;;-147.06;35.44
21594;BME280;10959;51.328;7.322;2023-05-31T09:17:49;73491.41;;;-147.06;36.11
21594;BME280;10959;51.328;7.322;2023-05-31T09:20:17;73479.09;;;-147.06;36.67
21594;BME280;10959;51.328;7.322;2023-05-31T09:22:46;73442.25;;;-147.06;36.21
21594;BME280;10959;51.328;7.322;2023-05-31T09:25:15;73421.75;;;-147.06;36.13
21594;BME280;10959;51.328;7.322;2023-05-31T09:27:42;73374.66;;;-147.06;36.56
21594;BME280;10959;51.328;7.322;2023-05-31T09:30:10;73337.78;;;-147.06;35.29
21594;BME280;10959;51.328;7.322;2023-05-31T09:32:37;73315.25;;;-147.06;34.42
21594;BME280;10959;51.328;7.322;2023-05-31T09:35:11;73282.47;;;-147.06;34.75
21594;BME280;10959;51.328;7.322;2023-05-31T09:37:45;73262.00;;;-147.06;33.61
21594;BME280;10959;51.328;7.322;2023-05-31T09:40:22;73274.28;;;-147.06;33.56
21594;BME280;10959;51.328;7.322;2023-05-31T09:42:50;73282.47;;;-147.06;33.24
21594;BME280;10959;51.328;7.322;2023-05-31T09:45:17;73323.44;;;-147.06;34.41
21594;BME280;10959;51.328;7.322;2023-05-31T09:47:45;73290.66;;;-147.06;34.83
21594;BME280;10959;51.328;7.322;2023-05-31T09:50:15;73294.75;;;-147.06;34.40
21594;BME280;10959;51.328;7.322;2023-05-31T09:52:43;73294.75;;;-147.06;33.52
21594;BME280;10959;51.328;7.322;2023-05-31T09:55:11;73278.38;;;-147.06;33.63
21594;BME280;10959;51.328;7.322;2023-05-31T09:57:40;73307.06;;;-147.06;33.56
21594;BME280;10959;51.328;7.322;2023-05-31T10:00:10;73270.19;;;-147.06;33.92
21594;BME280;10959;51.328;7.322;2023-05-31T10:02:41;73286.56;;;-147.06;30.23
21594;BME280;10959;51.328;7.322;2023-05-31T10:05:09;73266.09;;;-147.06;30.53
21594;BME280;10959;51.328;7.322;2023-05-31T10:07:37;73307.06;;;-147.06;30.24
21594;BME280;10959;51.328;7.322;2023-05-31T10:10:05;73331.63;;;-147.06;30.59
21594;BME280;10959;51.328;7.322;2023-05-31T10:12:34;73302.94;;;-147.06;30.14
21594;BME280;10959;51.328;7.322;2023-05-31T10:15:06;73296.81;;;-147.06;29.56
21594;BME280;10959;51.328;7.322;2023-05-31T10:17:38;73307.06;;;-147.06;29.25
21594;BME280;10959;51.328;7.322;2023-05-31T10:20:06;73325.50;;;-147.06;29.86
21594;BME280;10959;51.328;7.322;2023-05-31T10:22:36;73364.41;;;-147.06;30.43
21594;BME280;10959;51.328;7.322;2023-05-31T10:25:08;73382.84;;;-147.06;30.68
21594;BME280;10959;51.328;7.322;2023-05-31T10:27:37;73374.66;;;-147.06;31.38
21594;BME280;10959;51.328;7.322;2023-05-31T10:30:08;73335.72;;;-147.06;31.54
21594;BME280;10959;51.328;7.322;2023-05-31T10:32:40;73257.91;;;-147.06;31.87
21594;BME280;10959;51.328;7.322;2023-05-31T10:35:09;73216.94;;;-147.06;31.25
21594;BME280;10959;51.328;7.322;2023-05-31T10:37:38;73184.16;;;-147.06;31.06
21594;BME280;10959;51.328;7.322;2023-05-31T10:40:11;73204.66;;;-147.06;30.76
21594;BME280;10959;51.328;7.322;2023-05-31T10:42:44;73229.22;;;-147.06;30.45
21594;BME280;10959;51.328;7.322;2023-05-31T10:45:15;73247.66;;;-147.06;30.54
21594;BME280;10959;51.328;7.322;2023-05-31T10:47:47;73188.25;;;-147.06;31.70
21594;BME280;10959;51.328;7.322;2023-05-31T10:50:19;73184.16;;;-147.06;31.09
21594;BME280;10959;51.328;7.322;2023-05-31T10:52:48;73188.25;;;-147.06;30.83
21594;BME280;10959;51.328;7.322;2023-05-31T10:55:15;73143.19;;;-147.06;30.91
21594;BME280;10959;51.328;7.322;2023-05-31T10:57:42;73147.28;;;-147.06;30.06
21594;BME280;10959;51.328;7.322;2023-05-31T11:00:10;73167.78;;;-147.06;30.40
21594;BME280;10959;51.328;7.322;2023-05-31T11:02:45;73196.44;;;-147.06;30.58
21594;BME280;10959;51.328;7.322;2023-05-31T11:05:20;73167.78;;;-147.06;30.94
21594;BME280;10959;51.328;7.322;2023-05-31T11:07:47;73143.19;;;-147.06;30.57
21594;BME280;10959;51.328;7.322;2023-05-31T11:10:25;73126.81;;;-147.06;30.35
21594;BME280;10959;51.328;7.322;2023-05-31T11:12:55;73147.28;;;-147.06;29.94
21594;BME280;10959;51.328;7.322;2023-05-31T11:15:22;73188.25;;;-147.06;30.49
21594;BME280;10959;51.328;7.322;2023-05-31T11:17:54;73229.22;;;-147.06;30.44
21594;BME280;10959;51.328;7.322;2023-05-31T11:20:21;73167.78;;;-147.06;31.21
21594;BME280;10959;51.328;7.322;2023-05-31T11:23:26;73169.81;;;-147.06;30.47
21594;BME280;10959;51.328;7.322;2023-05-31T11:26:14;73169.81;;;-147.06;31.61
21594;BME280;10959;51.328;7.322;2023-05-31T11:28:59;73135.00;;;-147.06;30.56
21594;BME280;10959;51.328;7.322;2023-05-31T11:31:59;73089.94;;;-147.06;30.92
21594;BME280;10959;51.328;7.322;2023-05-31T11:34:30;73067.41;;;-147.06;30.08
21594;BME280;10959;51.328;7.322;2023-05-31T11:36:59;73106.34;;;-147.06;30.43
21594;BME280;10959;51.328;7.322;2023-05-31T11:39:27;73163.69;;;-147.06;30.49
21594;BME280;10959;51.328;7.322;2023-05-31T11:41:54;73171.88;;;-147.06;30.78
21594;BME280;10959;51.328;7.322;2023-05-31T11:44:26;73233.31;;;-147.06;31.15
21594;BME280;10959;51.328;7.322;2023-05-31T11:46:57;73167.78;;;-147.06;30.69
21594;BME280;10959;51.328;7.322;2023-05-31T11:49:24;73118.63;;;-147.06;30.89
21594;BME280;10959;51.328;7.322;2023-05-31T11:51:53;73081.75;;;-147.06;30.50
21594;BME280;10959;51.328;7.322;2023-05-31T11:54:25;73048.97;;;-147.06;29.60
21594;BME280;10959;51.328;7.322;2023-05-31T11:56:55;73098.13;;;-147.06;29.51
21594;BME280;10959;51.328;7.322;2023-05-31T11:59:23;73151.38;;;-147.06;30.40
21594;BME280;10959;51.328;7.322;2023-05-31T12:01:50;73143.19;;;-147.06;31.16
21594;BME280;10959;51.328;7.322;2023-05-31T12:04:16;73147.28;;;-147.06;30.51
21594;BME280;10959;51.328;7.322;2023-05-31T12:06:43;73175.97;;;-147.06;29.56
21594;BME280;10959;51.328;7.322;2023-05-31T12:09:11;73167.78;;;-147.06;30.98
21594;BME280;10959;51.328;7.322;2023-05-31T12:11:38;73143.19;;;-147.06;30.62
21594;BME280;10959;51.328;7.322;2023-05-31T12:14:04;73212.84;;;-147.06;30.88
21594;BME280;10959;51.328;7.322;2023-05-31T12:16:31;73147.28;;;-147.06;31.49
21594;BME280;10959;51.328;7.322;2023-05-31T12:18:57;73106.34;;;-147.06;30.72
21594;BME280;10959;51.328;7.322;2023-05-31T12:21:24;73098.13;;;-147.06;30.26
21594;BME280;10959;51.328;7.322;2023-05-31T12:23:51;73094.03;;;-147.06;30.63
21594;BME280;10959;51.328;7.322;2023-05-31T12:26:19;73102.22;;;-147.06;30.12
21594;BME280;10959;51.328;7.322;2023-05-31T12:28:46;73094.03;;;-147.06;30.69
21594;BME280;10959;51.328;7.322;2023-05-31T12:31:19;73171.88;;;-147.06;30.59
21594;BME280;10959;51.328;7.322;2023-05-31T12:33:51;73196.44;;;-147.06;31.07
21594;BME280;10959;51.328;7.322;2023-05-31T12:36:17;73171.88;;;-147.06;31.23
21594;BME280;10959;51.328;7.322;2023-05-31T12:38:43;73137.06;;;-147.06;31.19
21594;BME280;10959;51.328;7.322;2023-05-31T12:41:10;73135.00;;;-147.06;31.33
21594;BME280;10959;51.328;7.322;2023-05-31T12:43:39;73147.28;;;-147.06;30.27
21594;BME280;10959;51.328;7.322;2023-05-31T12:46:06;73175.97;;;-147.06;30.58